Route Details

Aircraft Information
Group: North America Fleet
Types: B738, B752, B762, B763
Route Data
Distance: 502nm
Duration: 1h 55m
Origin METAR: KRDU 171051Z 03004KT 10SM FEW065 FEW090 19/18 A2998 RMK AO2 SLP148 T01890178
Dest. METAR: KLAL 170515Z AUTO 00000KT 10SM CLR 24/23 A2993 RMK AO2 T02370234
Freight Data
(for Aug 18, 2022)
Load Factor:
71%
Manifested Cargo: 59,912lbs
Financial History
Total Freight: 81,228lbs
Average Load: 0lbs/flt
Fuel Used: 11,386lbs
Avg. Fuel Used: 0lbs/flt
Fuel Expense: $9,200
Avg. Fuel Expense: $0
Avg. Fuel Cost: $0/lbs
Total Gross Income: $199,821
Pilot Pay: $119
Total Expenses: $38,673
Total Revenue: $151,562
Average Revenue: $0

Capitol Logistics 329




KRDU
Raleigh Durham International Airport
Raleigh-durham, North Carolina
KLAL
Lakeland Linder Regional Airport
Lakeland, Florida

Activity Log

Date Flight Route Aircraft Duration
07/11/2022 CPX329 HOOKZ4 DAWTS CAE FISHO Q75 ENEME TAY/N0465F330 GNV LAL B763 1h 34m